sensor_id;sensor_type;location;lat;lon;timestamp;pressure;altitude;pressure_sealevel;temperature;humidity
57086;BME280;42964;42.910;23.792;2022-10-16T00:02:36;98420.34;;;7.66;89.86
57086;BME280;42964;42.910;23.792;2022-10-16T00:07:35;98416.59;;;7.50;90.39
57086;BME280;42964;42.910;23.792;2022-10-16T00:12:34;98421.38;;;7.35;90.20
57086;BME280;42964;42.910;23.792;2022-10-16T00:17:33;98430.16;;;7.05;91.12
57086;BME280;42964;42.910;23.792;2022-10-16T00:22:33;98439.66;;;6.71;92.18
57086;BME280;42964;42.910;23.792;2022-10-16T00:27:33;98446.25;;;6.60;92.45
57086;BME280;42964;42.910;23.792;2022-10-16T00:32:32;98452.25;;;6.59;92.72
57086;BME280;42964;42.910;23.792;2022-10-16T00:37:31;98444.41;;;6.56;92.30
57086;BME280;42964;42.910;23.792;2022-10-16T00:42:30;98440.69;;;6.45;92.84
57086;BME280;42964;42.910;23.792;2022-10-16T00:47:34;98448.13;;;6.34;92.68
57086;BME280;42964;42.910;23.792;2022-10-16T00:52:34;98450.94;;;6.11;93.08
57086;BME280;42964;42.910;23.792;2022-10-16T00:57:33;98449.25;;;6.12;93.81
57086;BME280;42964;42.910;23.792;2022-10-16T01:02:32;98454.09;;;6.01;94.02
57086;BME280;42964;42.910;23.792;2022-10-16T01:07:46;98460.06;;;5.98;93.48
57086;BME280;42964;42.910;23.792;2022-10-16T01:13:04;98453.06;;;5.94;93.98
57086;BME280;42964;42.910;23.792;2022-10-16T01:18:18;98441.00;;;5.93;93.56
57086;BME280;42964;42.910;23.792;2022-10-16T01:23:31;98450.41;;;5.91;93.35
57086;BME280;42964;42.910;23.792;2022-10-16T01:29:08;98459.00;;;5.92;94.02
57086;BME280;42964;42.910;23.792;2022-10-16T01:34:10;98459.59;;;5.83;93.91
57086;BME280;42964;42.910;23.792;2022-10-16T01:39:12;98459.59;;;5.83;93.65
57086;BME280;42964;42.910;23.792;2022-10-16T01:44:41;98457.78;;;5.79;93.20
57086;BME280;42964;42.910;23.792;2022-10-16T01:49:43;98456.81;;;5.75;93.81
57086;BME280;42964;42.910;23.792;2022-10-16T01:54:46;98443.34;;;5.55;94.03
57086;BME280;42964;42.910;23.792;2022-10-16T01:59:49;98465.97;;;5.66;94.02
57086;BME280;42964;42.910;23.792;2022-10-16T02:10:11;98476.03;;;5.58;94.19
57086;BME280;42964;42.910;23.792;2022-10-16T02:15:10;98460.25;;;5.47;93.96
57086;BME280;42964;42.910;23.792;2022-10-16T02:20:09;98482.69;;;5.51;94.13
57086;BME280;42964;42.910;23.792;2022-10-16T02:30:23;98483.06;;;5.37;94.02
57086;BME280;42964;42.910;23.792;2022-10-16T02:35:24;98485.34;;;5.26;93.82
57086;BME280;42964;42.910;23.792;2022-10-16T02:40:25;98487.47;;;5.12;93.71
57086;BME280;42964;42.910;23.792;2022-10-16T02:45:25;98499.00;;;4.98;94.01
57086;BME280;42964;42.910;23.792;2022-10-16T02:50:24;98500.38;;;4.88;94.06
57086;BME280;42964;42.910;23.792;2022-10-16T02:55:23;98503.56;;;4.81;94.29
57086;BME280;42964;42.910;23.792;2022-10-16T03:00:22;98503.34;;;4.75;94.16
57086;BME280;42964;42.910;23.792;2022-10-16T03:05:21;98503.19;;;4.70;94.22
57086;BME280;42964;42.910;23.792;2022-10-16T03:10:20;98508.94;;;4.63;94.24
57086;BME280;42964;42.910;23.792;2022-10-16T03:15:19;98499.31;;;4.57;94.33
57086;BME280;42964;42.910;23.792;2022-10-16T03:20:18;98505.88;;;4.49;94.54
57086;BME280;42964;42.910;23.792;2022-10-16T03:25:17;98516.53;;;4.36;95.09
57086;BME280;42964;42.910;23.792;2022-10-16T03:30:16;98518.00;;;4.29;94.93
57086;BME280;42964;42.910;23.792;2022-10-16T03:35:15;98517.88;;;4.24;95.18
57086;BME280;42964;42.910;23.792;2022-10-16T03:40:15;98520.38;;;4.23;95.18
57086;BME280;42964;42.910;23.792;2022-10-16T03:45:14;98527.06;;;4.19;95.20
57086;BME280;42964;42.910;23.792;2022-10-16T03:50:13;98521.78;;;4.15;95.75
57086;BME280;42964;42.910;23.792;2022-10-16T03:55:12;98524.16;;;4.10;95.59
57086;BME280;42964;42.910;23.792;2022-10-16T04:00:11;98528.09;;;4.00;96.15
57086;BME280;42964;42.910;23.792;2022-10-16T04:05:10;98528.84;;;3.98;96.19
57086;BME280;42964;42.910;23.792;2022-10-16T04:10:09;98522.09;;;4.00;95.97
57086;BME280;42964;42.910;23.792;2022-10-16T04:15:09;98521.44;;;4.05;96.14
57086;BME280;42964;42.910;23.792;2022-10-16T04:20:08;98532.72;;;4.09;95.94
57086;BME280;42964;42.910;23.792;2022-10-16T04:25:08;98528.53;;;4.13;95.68
57086;BME280;42964;42.910;23.792;2022-10-16T04:30:08;98544.69;;;4.08;95.02
57086;BME280;42964;42.910;23.792;2022-10-16T04:35:07;98547.19;;;4.07;94.60
57086;BME280;42964;42.910;23.792;2022-10-16T04:40:06;98551.84;;;4.17;95.04
57086;BME280;42964;42.910;23.792;2022-10-16T04:45:05;98555.66;;;4.27;94.99
57086;BME280;42964;42.910;23.792;2022-10-16T04:50:05;98559.53;;;4.40;94.71
57086;BME280;42964;42.910;23.792;2022-10-16T04:55:05;98556.44;;;4.50;94.60
57086;BME280;42964;42.910;23.792;2022-10-16T05:00:04;98563.78;;;4.63;94.51
57086;BME280;42964;42.910;23.792;2022-10-16T05:05:04;98538.84;;;4.61;94.71
57086;BME280;42964;42.910;23.792;2022-10-16T05:10:03;98565.63;;;4.91;95.10
57086;BME280;42964;42.910;23.792;2022-10-16T05:15:02;98576.41;;;5.05;94.98
57086;BME280;42964;42.910;23.792;2022-10-16T05:20:02;98577.44;;;5.10;94.63
57086;BME280;42964;42.910;23.792;2022-10-16T05:25:02;98589.81;;;5.21;93.63
57086;BME280;42964;42.910;23.792;2022-10-16T05:30:01;98590.22;;;5.33;93.54
57086;BME280;42964;42.910;23.792;2022-10-16T05:35:00;98589.59;;;5.40;93.15
57086;BME280;42964;42.910;23.792;2022-10-16T05:39:59;98589.97;;;5.25;93.21
57086;BME280;42964;42.910;23.792;2022-10-16T05:44:58;98598.34;;;5.20;94.00
57086;BME280;42964;42.910;23.792;2022-10-16T05:49:57;98605.13;;;5.18;94.95
57086;BME280;42964;42.910;23.792;2022-10-16T05:54:56;98614.72;;;5.22;94.41
57086;BME280;42964;42.910;23.792;2022-10-16T05:59:55;98608.84;;;5.26;94.88
57086;BME280;42964;42.910;23.792;2022-10-16T06:04:54;98612.03;;;5.44;95.30
57086;BME280;42964;42.910;23.792;2022-10-16T06:09:53;98618.41;;;5.55;95.10
57086;BME280;42964;42.910;23.792;2022-10-16T06:14:52;98621.72;;;5.79;95.92
57086;BME280;42964;42.910;23.792;2022-10-16T06:19:51;98639.81;;;6.07;95.50
57086;BME280;42964;42.910;23.792;2022-10-16T06:24:50;98633.25;;;6.18;95.74
57086;BME280;42964;42.910;23.792;2022-10-16T06:29:49;98637.66;;;6.21;95.38
57086;BME280;42964;42.910;23.792;2022-10-16T06:34:48;98652.78;;;6.39;94.97
57086;BME280;42964;42.910;23.792;2022-10-16T06:39:47;98659.19;;;6.52;94.49
57086;BME280;42964;42.910;23.792;2022-10-16T06:44:46;98664.50;;;6.58;94.31
57086;BME280;42964;42.910;23.792;2022-10-16T06:49:45;98664.00;;;6.70;95.16
57086;BME280;42964;42.910;23.792;2022-10-16T06:54:44;98673.41;;;6.98;94.21
57086;BME280;42964;42.910;23.792;2022-10-16T06:59:43;98667.31;;;6.96;93.56
57086;BME280;42964;42.910;23.792;2022-10-16T07:04:41;98683.31;;;7.14;93.99
57086;BME280;42964;42.910;23.792;2022-10-16T07:09:40;98682.19;;;7.36;92.42
57086;BME280;42964;42.910;23.792;2022-10-16T07:14:39;98682.19;;;7.36;92.08
57086;BME280;42964;42.910;23.792;2022-10-16T07:19:38;98682.44;;;7.44;91.38
57086;BME280;42964;42.910;23.792;2022-10-16T07:24:37;98682.28;;;7.39;91.73
57086;BME280;42964;42.910;23.792;2022-10-16T07:29:36;98685.69;;;7.38;91.44
57086;BME280;42964;42.910;23.792;2022-10-16T07:34:35;98689.91;;;7.35;92.02
57086;BME280;42964;42.910;23.792;2022-10-16T07:39:34;98684.00;;;7.39;92.93
57086;BME280;42964;42.910;23.792;2022-10-16T07:44:33;98684.16;;;7.45;92.93
57086;BME280;42964;42.910;23.792;2022-10-16T07:49:32;98686.16;;;7.55;92.77
57086;BME280;42964;42.910;23.792;2022-10-16T07:54:31;98673.41;;;7.61;93.69
57086;BME280;42964;42.910;23.792;2022-10-16T07:59:30;98694.47;;;7.77;93.54
57086;BME280;42964;42.910;23.792;2022-10-16T08:04:29;98696.47;;;7.88;93.35
57086;BME280;42964;42.910;23.792;2022-10-16T08:09:28;98692.22;;;7.91;93.90
57086;BME280;42964;42.910;23.792;2022-10-16T08:14:27;98687.53;;;8.11;93.74
57086;BME280;42964;42.910;23.792;2022-10-16T08:19:26;98684.56;;;8.30;93.89
57086;BME280;42964;42.910;23.792;2022-10-16T08:24:25;98679.00;;;8.52;93.38
57086;BME280;42964;42.910;23.792;2022-10-16T08:29:25;98680.56;;;8.85;92.65
57086;BME280;42964;42.910;23.792;2022-10-16T08:34:24;98673.13;;;9.01;92.27
57086;BME280;42964;42.910;23.792;2022-10-16T08:39:23;98679.66;;;9.27;91.50
57086;BME280;42964;42.910;23.792;2022-10-16T08:49:58;98679.25;;;10.00;90.02
57086;BME280;42964;42.910;23.792;2022-10-16T08:54:58;98676.25;;;10.29;86.00
57086;BME280;42964;42.910;23.792;2022-10-16T09:00:00;98677.50;;;10.58;85.69
57086;BME280;42964;42.910;23.792;2022-10-16T09:10:37;98685.16;;;11.12;81.17
57086;BME280;42964;42.910;23.792;2022-10-16T09:21:21;98666.78;;;11.79;73.19
57086;BME280;42964;42.910;23.792;2022-10-16T09:26:22;98664.44;;;12.06;71.23
57086;BME280;42964;42.910;23.792;2022-10-16T09:31:22;98653.34;;;12.34;68.83
57086;BME280;42964;42.910;23.792;2022-10-16T09:36:23;98653.53;;;12.66;65.57
57086;BME280;42964;42.910;23.792;2022-10-16T09:41:24;98652.81;;;12.99;65.03
57086;BME280;42964;42.910;23.792;2022-10-16T09:51:34;98639.00;;;13.37;59.78
57086;BME280;42964;42.910;23.792;2022-10-16T09:56:36;98632.13;;;13.54;58.75
57086;BME280;42964;42.910;23.792;2022-10-16T10:01:44;98630.41;;;13.89;57.96
57086;BME280;42964;42.910;23.792;2022-10-16T10:06:52;98621.72;;;14.04;56.79
57086;BME280;42964;42.910;23.792;2022-10-16T10:11:57;98619.97;;;14.19;57.39
57086;BME280;42964;42.910;23.792;2022-10-16T10:22:19;98610.28;;;14.51;52.79
57086;BME280;42964;42.910;23.792;2022-10-16T10:27:20;98611.13;;;14.65;52.56
57086;BME280;42964;42.910;23.792;2022-10-16T10:43:29;98598.81;;;14.98;50.37
57086;BME280;42964;42.910;23.792;2022-10-16T11:04:49;98586.34;;;15.40;48.35
57086;BME280;42964;42.910;23.792;2022-10-16T11:09:57;98577.50;;;15.56;47.86
57086;BME280;42964;42.910;23.792;2022-10-16T11:15:07;98568.66;;;15.79;46.60
57086;BME280;42964;42.910;23.792;2022-10-16T11:30:25;98547.50;;;15.97;45.71
57086;BME280;42964;42.910;23.792;2022-10-16T11:40:38;98550.03;;;16.08;44.05
57086;BME280;42964;42.910;23.792;2022-10-16T11:45:46;98550.88;;;16.12;42.97
57086;BME280;42964;42.910;23.792;2022-10-16T11:50:56;98531.59;;;16.16;42.63
57086;BME280;42964;42.910;23.792;2022-10-16T11:55:57;98545.34;;;16.36;43.47
57086;BME280;42964;42.910;23.792;2022-10-16T12:16:26;98547.03;;;17.11;42.40
57086;BME280;42964;42.910;23.792;2022-10-16T12:21:29;98547.88;;;17.12;41.47
57086;BME280;42964;42.910;23.792;2022-10-16T12:26:30;98545.19;;;17.17;40.10
57086;BME280;42964;42.910;23.792;2022-10-16T12:31:38;98549.75;;;17.05;39.25
57086;BME280;42964;42.910;23.792;2022-10-16T12:36:41;98548.00;;;17.06;39.04
57086;BME280;42964;42.910;23.792;2022-10-16T12:41:40;98543.41;;;17.19;38.26
57086;BME280;42964;42.910;23.792;2022-10-16T12:46:40;98544.25;;;17.22;37.55
57086;BME280;42964;42.910;23.792;2022-10-16T12:51:40;98544.03;;;17.36;37.40
57086;BME280;42964;42.910;23.792;2022-10-16T12:56:49;98542.25;;;17.38;36.69
57086;BME280;42964;42.910;23.792;2022-10-16T13:07:34;98557.19;;;17.33;36.88
57086;BME280;42964;42.910;23.792;2022-10-16T13:18:04;98542.34;;;17.33;35.56
57086;BME280;42964;42.910;23.792;2022-10-16T13:28:22;98548.56;;;17.25;35.73
57086;BME280;42964;42.910;23.792;2022-10-16T13:33:33;98543.06;;;17.42;36.38
57086;BME280;42964;42.910;23.792;2022-10-16T13:38:35;98551.88;;;17.38;35.57
57086;BME280;42964;42.910;23.792;2022-10-16T13:43:35;98552.91;;;17.29;35.91
57086;BME280;42964;42.910;23.792;2022-10-16T13:48:35;98547.94;;;17.07;36.23
57086;BME280;42964;42.910;23.792;2022-10-16T13:53:35;98564.56;;;17.08;36.52
57086;BME280;42964;42.910;23.792;2022-10-16T13:58:34;98574.28;;;17.00;37.28
57086;BME280;42964;42.910;23.792;2022-10-16T14:03:33;98577.75;;;17.00;37.11
57086;BME280;42964;42.910;23.792;2022-10-16T14:08:33;98577.75;;;17.00;36.72
57086;BME280;42964;42.910;23.792;2022-10-16T14:13:54;98567.28;;;17.00;36.95
57086;BME280;42964;42.910;23.792;2022-10-16T14:19:00;98581.19;;;17.07;36.98
57086;BME280;42964;42.910;23.792;2022-10-16T14:24:11;98585.56;;;17.06;37.59
57086;BME280;42964;42.910;23.792;2022-10-16T14:29:13;98592.69;;;16.95;37.95
57086;BME280;42964;42.910;23.792;2022-10-16T14:34:25;98589.38;;;16.79;38.18
57086;BME280;42964;42.910;23.792;2022-10-16T14:39:26;98595.56;;;16.72;38.33
57086;BME280;42964;42.910;23.792;2022-10-16T14:44:32;98585.19;;;16.63;38.99
57086;BME280;42964;42.910;23.792;2022-10-16T14:49:31;98609.75;;;16.57;39.35
57086;BME280;42964;42.910;23.792;2022-10-16T14:54:31;98607.28;;;16.42;39.70
57086;BME280;42964;42.910;23.792;2022-10-16T14:59:31;98614.50;;;16.18;39.96
57086;BME280;42964;42.910;23.792;2022-10-16T15:04:31;98614.66;;;16.01;40.53
57086;BME280;42964;42.910;23.792;2022-10-16T15:09:29;98618.28;;;15.88;40.82
57086;BME280;42964;42.910;23.792;2022-10-16T15:14:28;98612.31;;;15.67;41.16
57086;BME280;42964;42.910;23.792;2022-10-16T15:19:27;98622.88;;;15.55;41.61
57086;BME280;42964;42.910;23.792;2022-10-16T15:24:26;98639.59;;;15.33;42.23
57086;BME280;42964;42.910;23.792;2022-10-16T15:29:25;98638.78;;;15.18;42.17
57086;BME280;42964;42.910;23.792;2022-10-16T15:34:24;98651.06;;;15.01;42.80
57086;BME280;42964;42.910;23.792;2022-10-16T15:39:22;98645.94;;;14.79;43.06
57086;BME280;42964;42.910;23.792;2022-10-16T15:44:21;98656.41;;;14.73;43.48
57086;BME280;42964;42.910;23.792;2022-10-16T15:49:28;98642.50;;;14.47;44.21
57086;BME280;42964;42.910;23.792;2022-10-16T15:54:26;98667.78;;;14.38;45.02
57086;BME280;42964;42.910;23.792;2022-10-16T15:59:25;98675.63;;;14.18;45.75
57086;BME280;42964;42.910;23.792;2022-10-16T16:04:24;98683.47;;;13.95;46.96
57086;BME280;42964;42.910;23.792;2022-10-16T16:09:23;98690.41;;;13.70;47.92
57086;BME280;42964;42.910;23.792;2022-10-16T16:14:22;98696.41;;;13.46;49.27
57086;BME280;42964;42.910;23.792;2022-10-16T16:19:23;98702.41;;;13.22;50.22
57086;BME280;42964;42.910;23.792;2022-10-16T16:24:22;98715.34;;;12.96;50.85
57086;BME280;42964;42.910;23.792;2022-10-16T16:29:21;98724.72;;;12.69;51.55
57086;BME280;42964;42.910;23.792;2022-10-16T16:34:20;98723.72;;;12.46;52.58
57086;BME280;42964;42.910;23.792;2022-10-16T16:39:19;98731.31;;;12.18;53.01
57086;BME280;42964;42.910;23.792;2022-10-16T16:44:18;98752.00;;;12.04;53.96
57086;BME280;42964;42.910;23.792;2022-10-16T16:49:17;98761.34;;;11.85;54.54
57086;BME280;42964;42.910;23.792;2022-10-16T16:54:16;98748.97;;;11.63;54.73
57086;BME280;42964;42.910;23.792;2022-10-16T16:59:16;98776.59;;;11.55;55.60
57086;BME280;42964;42.910;23.792;2022-10-16T17:04:16;98782.47;;;11.38;55.83
57086;BME280;42964;42.910;23.792;2022-10-16T17:09:15;98783.13;;;11.22;56.82
57086;BME280;42964;42.910;23.792;2022-10-16T17:14:15;98784.59;;;11.01;57.97
57086;BME280;42964;42.910;23.792;2022-10-16T17:19:16;98796.53;;;10.87;57.96
57086;BME280;42964;42.910;23.792;2022-10-16T17:24:15;98799.72;;;10.72;59.26
57086;BME280;42964;42.910;23.792;2022-10-16T17:29:14;98800.25;;;10.50;59.48
57086;BME280;42964;42.910;23.792;2022-10-16T17:34:14;98786.88;;;10.25;60.77
57086;BME280;42964;42.910;23.792;2022-10-16T17:39:13;98811.91;;;10.22;61.66
57086;BME280;42964;42.910;23.792;2022-10-16T17:44:15;98818.53;;;10.06;62.12
57086;BME280;42964;42.910;23.792;2022-10-16T17:49:18;98816.56;;;9.94;62.87
57086;BME280;42964;42.910;23.792;2022-10-16T17:54:18;98813.78;;;9.83;63.23
57086;BME280;42964;42.910;23.792;2022-10-16T17:59:17;98829.06;;;9.69;64.01
57086;BME280;42964;42.910;23.792;2022-10-16T18:04:20;98833.19;;;9.60;63.98
57086;BME280;42964;42.910;23.792;2022-10-16T18:09:19;98833.88;;;9.51;64.74
57086;BME280;42964;42.910;23.792;2022-10-16T18:14:18;98831.94;;;9.41;65.35
57086;BME280;42964;42.910;23.792;2022-10-16T18:19:18;98836.09;;;9.34;65.93
57086;BME280;42964;42.910;23.792;2022-10-16T18:24:18;98832.38;;;9.23;66.20
57086;BME280;42964;42.910;23.792;2022-10-16T18:29:17;98846.13;;;9.19;66.72
57086;BME280;42964;42.910;23.792;2022-10-16T18:34:16;98853.69;;;9.11;67.37
57086;BME280;42964;42.910;23.792;2022-10-16T18:39:15;98869.81;;;8.99;67.76
57086;BME280;42964;42.910;23.792;2022-10-16T18:44:16;98872.25;;;8.91;68.28
57086;BME280;42964;42.910;23.792;2022-10-16T18:49:15;98873.84;;;8.86;68.61
57086;BME280;42964;42.910;23.792;2022-10-16T18:54:14;98884.00;;;8.77;69.36
57086;BME280;42964;42.910;23.792;2022-10-16T18:59:13;98894.06;;;8.65;69.72
57086;BME280;42964;42.910;23.792;2022-10-16T19:04:14;98903.31;;;8.57;69.88
57086;BME280;42964;42.910;23.792;2022-10-16T19:09:14;98910.84;;;8.47;70.62
57086;BME280;42964;42.910;23.792;2022-10-16T19:14:15;98909.72;;;8.38;71.02
57086;BME280;42964;42.910;23.792;2022-10-16T19:19:16;98918.97;;;8.28;71.97
57086;BME280;42964;42.910;23.792;2022-10-16T19:24:16;98917.03;;;8.21;73.23
57086;BME280;42964;42.910;23.792;2022-10-16T19:29:15;98926.38;;;8.16;73.18
57086;BME280;42964;42.910;23.792;2022-10-16T19:34:14;98923.75;;;8.14;73.59
57086;BME280;42964;42.910;23.792;2022-10-16T19:39:14;98934.75;;;8.07;73.76
57086;BME280;42964;42.910;23.792;2022-10-16T19:44:15;98934.56;;;8.01;73.94
57086;BME280;42964;42.910;23.792;2022-10-16T19:49:17;98940.38;;;7.92;75.10
57086;BME280;42964;42.910;23.792;2022-10-16T19:54:18;98945.28;;;7.83;75.69
57086;BME280;42964;42.910;23.792;2022-10-16T19:59:17;98957.94;;;7.74;75.85
57086;BME280;42964;42.910;23.792;2022-10-16T20:04:17;98957.75;;;7.68;76.21
57086;BME280;42964;42.910;23.792;2022-10-16T20:09:16;98962.56;;;7.57;77.56
57086;BME280;42964;42.910;23.792;2022-10-16T20:14:15;98958.97;;;7.50;76.95
57086;BME280;42964;42.910;23.792;2022-10-16T20:19:14;98961.41;;;7.45;77.02
57086;BME280;42964;42.910;23.792;2022-10-16T20:24:13;98963.66;;;7.36;78.81
57086;BME280;42964;42.910;23.792;2022-10-16T20:29:13;98966.03;;;7.30;78.79
57086;BME280;42964;42.910;23.792;2022-10-16T20:34:12;98967.38;;;7.17;80.12
57086;BME280;42964;42.910;23.792;2022-10-16T20:39:11;98977.47;;;7.11;79.77
57086;BME280;42964;42.910;23.792;2022-10-16T20:44:11;98969.59;;;7.07;79.84
57086;BME280;42964;42.910;23.792;2022-10-16T20:49:10;98975.44;;;7.01;80.37
57086;BME280;42964;42.910;23.792;2022-10-16T20:54:10;98979.56;;;6.96;80.74
57086;BME280;42964;42.910;23.792;2022-10-16T20:59:10;98979.28;;;6.87;80.41
57086;BME280;42964;42.910;23.792;2022-10-16T21:04:10;98972.66;;;6.69;80.46
57086;BME280;42964;42.910;23.792;2022-10-16T21:09:09;98986.22;;;6.64;81.12
57086;BME280;42964;42.910;23.792;2022-10-16T21:14:08;98982.56;;;6.57;81.96
57086;BME280;42964;42.910;23.792;2022-10-16T21:19:07;98984.66;;;6.43;82.33
57086;BME280;42964;42.910;23.792;2022-10-16T21:24:06;98985.88;;;6.29;82.96
57086;BME280;42964;42.910;23.792;2022-10-16T21:29:06;98987.44;;;6.25;82.96
57086;BME280;42964;42.910;23.792;2022-10-16T21:34:05;98993.28;;;6.19;83.25
57086;BME280;42964;42.910;23.792;2022-10-16T21:39:16;98999.03;;;6.12;83.22
57086;BME280;42964;42.910;23.792;2022-10-16T21:44:16;98996.19;;;6.05;82.82
57086;BME280;42964;42.910;23.792;2022-10-16T21:49:16;99002.81;;;5.98;83.77
57086;BME280;42964;42.910;23.792;2022-10-16T21:54:18;99019.81;;;5.94;83.52
57086;BME280;42964;42.910;23.792;2022-10-16T21:59:17;99015.25;;;5.87;83.25
57086;BME280;42964;42.910;23.792;2022-10-16T22:04:17;99021.25;;;5.86;83.78
57086;BME280;42964;42.910;23.792;2022-10-16T22:09:16;99022.00;;;5.84;83.74
57086;BME280;42964;42.910;23.792;2022-10-16T22:14:17;99027.03;;;5.81;83.69
57086;BME280;42964;42.910;23.792;2022-10-16T22:19:20;99024.09;;;5.71;84.24
57086;BME280;42964;42.910;23.792;2022-10-16T22:24:19;99047.41;;;5.74;84.19
57086;BME280;42964;42.910;23.792;2022-10-16T22:29:18;99041.53;;;5.56;85.38
57086;BME280;42964;42.910;23.792;2022-10-16T22:34:17;99048.06;;;5.48;85.93
57086;BME280;42964;42.910;23.792;2022-10-16T22:39:16;99039.84;;;5.36;86.16
57086;BME280;42964;42.910;23.792;2022-10-16T22:44:15;99058.91;;;5.39;86.48
57086;BME280;42964;42.910;23.792;2022-10-16T22:49:14;99063.66;;;5.09;87.48
57086;BME280;42964;42.910;23.792;2022-10-16T22:54:15;99065.78;;;4.98;87.11
57086;BME280;42964;42.910;23.792;2022-10-16T22:59:14;99065.66;;;4.95;86.84
57086;BME280;42964;42.910;23.792;2022-10-16T23:04:13;99068.78;;;4.89;86.77
57086;BME280;42964;42.910;23.792;2022-10-16T23:09:12;99067.72;;;4.84;86.94
57086;BME280;42964;42.910;23.792;2022-10-16T23:14:11;99070.09;;;4.80;86.76
57086;BME280;42964;42.910;23.792;2022-10-16T23:19:10;99075.91;;;4.76;87.01
57086;BME280;42964;42.910;23.792;2022-10-16T23:24:09;99082.72;;;4.74;87.25
57086;BME280;42964;42.910;23.792;2022-10-16T23:29:08;99084.25;;;4.70;87.70
57086;BME280;42964;42.910;23.792;2022-10-16T23:34:07;99091.13;;;4.71;87.90
57086;BME280;42964;42.910;23.792;2022-10-16T23:39:06;99089.31;;;4.68;87.93
57086;BME280;42964;42.910;23.792;2022-10-16T23:44:05;99078.72;;;4.61;87.65
57086;BME280;42964;42.910;23.792;2022-10-16T23:49:04;99088.38;;;4.66;87.94
57086;BME280;42964;42.910;23.792;2022-10-16T23:54:03;99087.44;;;4.64;87.50
57086;BME280;42964;42.910;23.792;2022-10-16T23:59:02;99093.38;;;4.63;87.69
